Search for airport 
image banner adimage banner adimage banner ad
image banner ad

KWJF - General Wm J Fox Airfield

Located in Lancaster, United States

ICAO - WJF, IATA - WJF

Data provided by Airmate  

General information

Coordinates: N34°44'28" W118°13'7"
Elevation is 2351 feet MSL.
Magnetic variation is 15° East
View others Airports in California

Operational data

Special qualification required
Current time UTC:
Current local time:
Weather
METAR: KWJF 240756Z AUTO 28009KT 10SM CLR 23/05 A3001 RMK AO2 SLP138 T02330050 403440200
TAF: KWJF 240601Z 2406/2506 03010KT P6SM SKC FM240800 25012KT P6SM SKC FM242000 22019G27KT P6SM SKC FM250400 25012KT P6SM SKC
View NOTAMs / SUP AIP / TFR affecting this airport [VIEW]
Communications frequencies: [VIEW]

Runways:

RWY identifierQFULength (ft)Width (ft)SurfaceLDA (ft)
0672°7201150ASPH
24252°7201150ASPH

Airport contact information

Address: Lancaster United States

Other aviation service providers

Flight schools

Barnes Aviation

Barnes Aviation

Satellite view of KWJF